Time;durP1;ratioP1;P1;durP2;ratioP2;P2;SDS_P1;SDS_P2;PMS_P1;PMS_P2;Temp;Humidity;BMP_temperature;BMP_pressure;BME280_temperature;BME280_humidity;BME280_pressure;Samples;Min_cycle;Max_cycle;Signal;HPM_P1;HPM_P2
2022/04/03 00:01:17;;;;;;;1.40;0.80;;;;;;;13.96;42.27;95777.84;5115787;28;20020;-31
2022/04/03 00:03:43;;;;;;;2.22;0.90;;;;;;;13.89;42.49;95783.63;5115446;28;20039;-31
2022/04/03 00:06:09;;;;;;;1.05;0.70;;;;;;;13.85;42.38;95783.03;5115570;28;20444;-31
2022/04/03 00:08:34;;;;;;;0.88;0.80;;;;;;;13.89;42.24;95788.31;5115820;28;20480;-31
2022/04/03 00:11:00;;;;;;;0.90;0.63;;;;;;;13.86;42.15;95794.69;5115739;28;20052;-31
2022/04/03 00:13:26;;;;;;;1.17;0.70;;;;;;;13.92;42.20;95798.31;5115700;28;20050;-31
2022/04/03 00:15:52;;;;;;;1.38;0.65;;;;;;;13.94;42.26;95802.06;5115391;28;20023;-31
2022/04/03 00:18:17;;;;;;;1.65;0.85;;;;;;;13.99;42.21;95804.16;5115366;28;20016;-31
2022/04/03 00:20:43;;;;;;;1.38;0.90;;;;;;;14.00;42.26;95810.34;5115374;28;20077;-31
2022/04/03 00:23:09;;;;;;;1.23;0.77;;;;;;;13.94;41.86;95815.72;5115461;28;20517;-31
2022/04/03 00:25:35;;;;;;;0.90;0.80;;;;;;;13.99;42.32;95820.50;5115091;28;20379;-31
2022/04/03 00:28:01;;;;;;;1.48;0.90;;;;;;;13.91;42.24;95808.44;5115575;28;20042;-31
2022/04/03 00:30:27;;;;;;;0.75;0.73;;;;;;;13.99;42.14;95812.34;5115447;28;20023;-31
2022/04/03 00:32:52;;;;;;;1.30;0.90;;;;;;;13.93;42.23;95805.25;5115042;28;20073;-31
2022/04/03 00:35:20;;;;;;;1.13;0.60;;;;;;;13.89;42.34;95808.16;5114982;28;20019;-31
2022/04/03 00:37:46;;;;;;;0.77;0.70;;;;;;;13.88;42.25;95814.06;5115107;28;20365;-31
2022/04/03 00:40:12;;;;;;;0.90;0.68;;;;;;;13.94;42.49;95812.22;5114899;28;20031;-31
2022/04/03 00:42:38;;;;;;;0.70;0.60;;;;;;;13.99;42.17;95809.59;5114937;28;20015;-31
2022/04/03 00:45:04;;;;;;;1.00;0.60;;;;;;;14.02;42.07;95814.13;5115042;28;20376;-31
2022/04/03 00:47:30;;;;;;;1.05;0.70;;;;;;;13.86;42.17;95819.97;5114838;28;20529;-31
2022/04/03 00:49:56;;;;;;;0.90;0.70;;;;;;;13.91;41.82;95813.91;5114819;28;20034;-31
2022/04/03 00:52:22;;;;;;;0.50;0.45;;;;;;;13.98;41.84;95813.53;5114823;28;20019;-31
2022/04/03 00:54:48;;;;;;;1.70;0.85;;;;;;;13.98;41.81;95815.50;5114899;28;20032;-31
2022/04/03 00:57:14;;;;;;;0.75;0.63;;;;;;;13.87;41.99;95813.31;5114923;28;20035;-31
2022/04/03 00:59:41;;;;;;;0.90;0.63;;;;;;;13.86;42.32;95816.50;5114737;28;20081;-31
2022/04/03 01:02:07;;;;;;;1.38;0.80;;;;;;;13.91;42.40;95813.91;5113973;28;20055;-31
2022/04/03 01:04:32;;;;;;;0.88;0.52;;;;;;;13.95;41.70;95819.94;5114233;28;20045;-31
2022/04/03 01:06:58;;;;;;;0.80;0.50;;;;;;;13.90;42.11;95817.84;5114537;28;20041;-31
2022/04/03 01:09:24;;;;;;;0.80;0.52;;;;;;;13.94;42.04;95823.88;5114585;28;20023;-31
2022/04/03 01:11:50;;;;;;;0.55;0.50;;;;;;;13.93;41.86;95825.09;5114402;28;20042;-31
2022/04/03 01:14:30;;;;;;;0.75;0.50;;;;;;;13.83;42.03;95829.09;5114338;28;20025;-31
2022/04/03 01:16:56;;;;;;;0.65;0.50;;;;;;;13.86;42.10;95825.41;5114270;28;20027;-31
2022/04/03 01:19:21;;;;;;;0.70;0.60;;;;;;;13.89;42.00;95831.94;5114400;28;20482;-31
2022/04/03 01:21:46;;;;;;;1.10;0.55;;;;;;;13.87;41.96;95832.38;5114300;28;20024;-31
2022/04/03 01:24:22;;;;;;;0.70;0.50;;;;;;;13.78;41.83;95837.13;5114302;28;20379;-31
2022/04/03 01:26:48;;;;;;;0.50;0.40;;;;;;;13.83;41.50;95831.81;5114189;28;20041;-31
2022/04/03 01:29:15;;;;;;;1.30;0.60;;;;;;;13.83;41.98;95840.00;5114287;28;20124;-31
2022/04/03 01:31:41;;;;;;;0.95;0.68;;;;;;;13.91;41.50;95835.72;5118152;27;20379;-31
2022/04/03 01:34:07;;;;;;;1.27;0.70;;;;;;;13.89;41.58;95838.13;5132414;27;20038;-31
2022/04/03 01:36:32;;;;;;;1.00;0.70;;;;;;;13.94;41.50;95851.16;5133470;27;20023;-31
2022/04/03 01:38:58;;;;;;;1.02;0.70;;;;;;;13.91;41.45;95843.88;5134533;27;20106;-31
2022/04/03 01:41:23;;;;;;;0.82;0.60;;;;;;;14.02;41.35;95848.81;5134510;27;20030;-31
2022/04/03 01:43:49;;;;;;;1.08;0.52;;;;;;;13.86;41.56;95846.47;5134444;27;20027;-31
2022/04/03 01:46:14;;;;;;;1.30;0.90;;;;;;;13.88;41.77;95844.03;5134907;27;20380;-31
2022/04/03 01:48:40;;;;;;;0.68;0.60;;;;;;;13.89;41.40;95843.59;5134595;27;20497;-31
2022/04/03 01:51:05;;;;;;;1.08;0.73;;;;;;;13.84;41.66;95846.97;5134562;27;20019;-31
2022/04/03 01:53:31;;;;;;;0.98;0.73;;;;;;;13.88;41.69;95852.22;5134536;27;20054;-31
2022/04/03 01:56:07;;;;;;;1.80;0.70;;;;;;;13.83;41.66;95853.63;5134156;27;20471;-31
2022/04/03 01:58:33;;;;;;;1.58;0.80;;;;;;;13.89;41.61;95857.22;5134226;27;20475;-31
2022/04/03 02:00:59;;;;;;;1.10;0.70;;;;;;;13.91;41.32;95867.66;5134385;27;20432;-31
2022/04/03 02:03:26;;;;;;;2.58;0.60;;;;;;;13.88;41.55;95865.84;5134007;27;20046;-31
2022/04/03 02:05:53;;;;;;;1.00;0.65;;;;;;;13.83;41.75;95878.16;5134153;27;20023;-31
2022/04/03 02:08:18;;;;;;;0.95;0.63;;;;;;;13.82;41.47;95871.19;5134206;27;20037;-31
2022/04/03 02:10:44;;;;;;;2.22;1.08;;;;;;;13.85;41.85;95877.66;5133789;27;20023;-32
2022/04/03 02:13:10;;;;;;;1.58;0.70;;;;;;;13.86;41.71;95882.66;5134241;27;20068;-31
2022/04/03 02:15:36;;;;;;;0.77;0.60;;;;;;;13.88;41.72;95891.13;5137777;27;20495;-31
2022/04/03 02:18:01;;;;;;;0.70;0.50;;;;;;;13.93;41.63;95887.78;5138542;27;20026;-32
2022/04/03 02:20:27;;;;;;;1.20;0.70;;;;;;;13.82;41.56;95890.28;5138406;27;20050;-31
2022/04/03 02:22:52;;;;;;;1.10;0.80;;;;;;;13.82;41.83;95898.44;5138310;27;20035;-31
2022/04/03 02:25:18;;;;;;;2.72;0.80;;;;;;;13.88;41.70;95906.75;5138074;27;20461;-31
2022/04/03 02:27:46;;;;;;;1.17;0.70;;;;;;;13.93;41.93;95908.84;5138233;27;20431;-31
2022/04/03 02:30:13;;;;;;;1.35;0.55;;;;;;;13.87;41.88;95905.22;5138022;27;20436;-31
2022/04/03 02:32:41;;;;;;;1.23;0.60;;;;;;;13.88;41.60;95912.94;5138223;27;20023;-31
2022/04/03 02:35:08;;;;;;;1.90;0.75;;;;;;;13.86;41.90;95915.38;5138334;27;20102;-31
2022/04/03 02:37:35;;;;;;;0.70;0.50;;;;;;;13.92;41.60;95908.09;5138321;27;20482;-31
2022/04/03 02:40:03;;;;;;;1.92;0.77;;;;;;;13.91;41.58;95912.03;5137831;27;20038;-31
2022/04/03 02:42:28;;;;;;;1.48;0.57;;;;;;;13.90;41.78;95910.53;5137935;27;20443;-31
2022/04/03 02:44:54;;;;;;;1.33;0.73;;;;;;;13.91;41.67;95919.44;5138001;27;20038;-31
2022/04/03 02:47:20;;;;;;;1.38;0.60;;;;;;;13.85;42.12;95910.38;5137701;27;20023;-31
2022/04/03 02:49:45;;;;;;;2.28;0.57;;;;;;;13.99;41.78;95915.16;5137809;27;20034;-31
2022/04/03 02:52:11;;;;;;;0.85;0.60;;;;;;;13.92;41.73;95923.69;5137645;27;20023;-31
2022/04/03 02:54:37;;;;;;;2.05;0.77;;;;;;;13.86;42.12;95915.38;5137686;27;20143;-31
2022/04/03 02:57:03;;;;;;;3.13;0.55;;;;;;;13.79;42.27;95921.16;5137581;27;20364;-31
2022/04/03 02:59:28;;;;;;;1.48;0.68;;;;;;;13.88;42.07;95920.38;5137760;27;20043;-32
2022/04/03 03:01:54;;;;;;;0.88;0.60;;;;;;;13.90;42.03;95918.69;5137101;27;20059;-31
2022/04/03 03:04:19;;;;;;;0.80;0.50;;;;;;;13.92;41.91;95916.28;5137647;27;20019;-31
2022/04/03 03:06:45;;;;;;;1.55;0.73;;;;;;;13.85;41.93;95918.56;5137240;27;20320;-31
2022/04/03 03:09:11;;;;;;;1.10;0.70;;;;;;;13.80;42.12;95922.69;5137288;27;20403;-31
2022/04/03 03:11:36;;;;;;;1.17;0.50;;;;;;;13.87;42.30;95937.94;5137451;27;20029;-31
2022/04/03 03:14:02;;;;;;;1.38;0.75;;;;;;;13.84;42.54;95927.97;5137323;27;20019;-31
2022/04/03 03:16:27;;;;;;;1.58;0.90;;;;;;;13.86;42.05;95937.19;5137272;27;20029;-31
2022/04/03 03:18:54;;;;;;;1.17;0.70;;;;;;;13.88;42.46;95936.72;5137131;27;20034;-32
2022/04/03 03:21:19;;;;;;;0.60;0.50;;;;;;;13.85;42.34;95941.13;5118575;27;20378;-31
2022/04/03 03:23:45;;;;;;;0.93;0.60;;;;;;;13.84;42.40;95938.88;5137008;27;20023;-31
2022/04/03 03:26:10;;;;;;;2.47;0.60;;;;;;;13.85;42.26;95952.00;5136409;27;20019;-31
2022/04/03 03:28:41;;;;;;;1.33;0.60;;;;;;;13.91;42.38;95952.91;5136965;27;20114;-31
2022/04/03 03:31:06;;;;;;;0.70;0.60;;;;;;;13.82;42.34;95949.47;5137190;27;20026;-31
2022/04/03 03:33:31;;;;;;;1.02;0.80;;;;;;;13.80;42.40;95955.38;5137011;27;20352;-31
2022/04/03 03:35:57;;;;;;;1.00;0.73;;;;;;;13.90;42.49;95959.59;5136702;27;20030;-31
2022/04/03 03:38:23;;;;;;;1.58;0.90;;;;;;;13.93;42.36;95958.69;5137458;27;20027;-31
2022/04/03 03:40:48;;;;;;;1.08;0.63;;;;;;;13.88;42.44;95967.47;5136867;27;20022;-32
2022/04/03 03:43:14;;;;;;;3.67;0.70;;;;;;;13.91;42.29;95972.00;5136830;27;20015;-31
2022/04/03 03:45:39;;;;;;;0.90;0.50;;;;;;;13.89;42.17;95979.88;5136623;27;20011;-32
2022/04/03 03:48:05;;;;;;;0.88;0.60;;;;;;;13.86;42.39;95978.06;5136720;27;20022;-31
2022/04/03 03:50:31;;;;;;;1.42;0.90;;;;;;;13.88;42.23;95997.44;5136767;27;20420;-31
2022/04/03 03:52:57;;;;;;;0.95;0.60;;;;;;;13.86;42.36;95991.69;5136456;27;20153;-31
2022/04/03 03:55:22;;;;;;;1.67;0.65;;;;;;;13.91;42.23;95991.09;5136370;27;20110;-31
2022/04/03 03:57:48;;;;;;;1.67;0.47;;;;;;;13.96;41.88;96004.09;5136486;27;20023;-31
2022/04/03 04:00:15;;;;;;;0.75;0.60;;;;;;;13.90;42.14;95997.75;5136321;27;20027;-31
2022/04/03 04:02:40;;;;;;;1.45;0.80;;;;;;;13.77;42.52;96005.34;5136213;27;20047;-31
2022/04/03 04:05:06;;;;;;;1.35;0.63;;;;;;;13.92;42.37;96010.94;5136448;27;20050;-31
2022/04/03 04:07:43;;;;;;;3.50;0.90;;;;;;;13.91;42.30;96018.34;5136711;27;20023;-31
2022/04/03 04:10:13;;;;;;;1.55;0.60;;;;;;;13.80;42.26;96020.03;5136204;27;20050;-31
2022/04/03 04:12:40;;;;;;;1.05;0.60;;;;;;;13.87;42.10;96019.72;5136214;27;20023;-31
2022/04/03 04:15:06;;;;;;;0.90;0.60;;;;;;;13.86;42.10;96027.13;5136359;27;20023;-31
2022/04/03 04:17:42;;;;;;;1.20;0.63;;;;;;;13.83;42.31;96027.31;5136347;27;20425;-31
2022/04/03 04:20:11;;;;;;;0.80;0.50;;;;;;;13.86;42.28;96034.53;5136200;27;20076;-31
2022/04/03 04:22:37;;;;;;;1.17;0.60;;;;;;;13.82;42.57;96028.50;5136006;27;20034;-32
2022/04/03 04:25:03;;;;;;;2.60;0.80;;;;;;;13.83;42.60;96030.78;5135887;27;20023;-31
2022/04/03 04:27:29;;;;;;;0.50;0.47;;;;;;;13.83;42.33;96041.69;5135952;27;20529;-31
2022/04/03 04:29:54;;;;;;;1.13;0.60;;;;;;;13.82;42.36;96036.69;5135966;27;20031;-32
2022/04/03 04:32:21;;;;;;;2.17;0.65;;;;;;;13.84;42.41;96039.72;5135674;27;20022;-31
2022/04/03 04:34:50;;;;;;;0.82;0.60;;;;;;;13.86;42.49;96042.72;5135737;27;20027;-31
2022/04/03 04:37:16;;;;;;;0.60;0.60;;;;;;;13.77;42.87;96042.75;5134841;27;20118;-31
2022/04/03 04:39:42;;;;;;;1.30;0.60;;;;;;;13.82;42.34;96048.34;5117223;27;20023;-31
2022/04/03 04:42:07;;;;;;;0.75;0.50;;;;;;;13.72;42.46;96057.75;5135479;27;20026;-31
2022/04/03 04:44:33;;;;;;;1.02;0.60;;;;;;;13.84;42.31;96056.84;5135706;27;20102;-31
2022/04/03 04:46:58;;;;;;;1.38;0.65;;;;;;;13.74;42.47;96058.03;5135351;27;20019;-31
2022/04/03 04:49:24;;;;;;;1.33;0.75;;;;;;;13.91;42.04;96059.22;5135351;27;20367;-31
2022/04/03 04:51:49;;;;;;;1.42;0.80;;;;;;;13.85;42.07;96061.03;5135330;27;20051;-31
2022/04/03 04:54:15;;;;;;;0.85;0.60;;;;;;;13.79;42.23;96070.31;5135403;27;20034;-31
2022/04/03 04:56:41;;;;;;;0.95;0.50;;;;;;;13.69;42.48;96072.28;5135281;27;20035;-31
2022/04/03 04:59:06;;;;;;;1.02;0.70;;;;;;;13.66;42.50;96070.47;5135219;27;20552;-31
2022/04/03 05:01:32;;;;;;;1.20;0.70;;;;;;;13.71;42.11;96082.72;5135045;27;20058;-31
2022/04/03 05:03:58;;;;;;;0.60;0.57;;;;;;;13.81;42.12;96085.00;5134990;27;20129;-31
2022/04/03 05:06:26;;;;;;;1.20;0.80;;;;;;;13.71;41.86;96083.50;5135224;27;20103;-31
2022/04/03 05:08:52;;;;;;;1.88;0.70;;;;;;;13.84;41.79;96088.78;5134974;27;20370;-31
2022/04/03 05:11:18;;;;;;;0.63;0.50;;;;;;;13.77;42.08;96091.81;5135558;27;20093;-31
2022/04/03 05:13:43;;;;;;;0.93;0.70;;;;;;;13.73;41.92;96102.09;5134811;27;20535;-31
2022/04/03 05:16:10;;;;;;;0.95;0.70;;;;;;;13.74;41.79;96107.09;5134970;27;20023;-31
2022/04/03 05:18:35;;;;;;;1.58;0.90;;;;;;;13.70;42.31;96111.94;5134851;27;20027;-31
2022/04/03 05:21:02;;;;;;;1.00;0.73;;;;;;;13.77;41.80;96111.63;5134777;27;20386;-31
2022/04/03 05:23:28;;;;;;;1.10;0.80;;;;;;;13.77;41.85;96119.06;5134761;27;20365;-31
2022/04/03 05:25:53;;;;;;;0.80;0.70;;;;;;;13.66;42.32;96114.06;5135103;27;20022;-31
2022/04/03 05:28:21;;;;;;;1.40;0.80;;;;;;;13.72;41.95;96117.72;5134657;27;20106;-31
2022/04/03 05:30:47;;;;;;;1.10;0.82;;;;;;;13.72;41.98;96119.69;5134782;27;20019;-31
2022/04/03 05:33:14;;;;;;;0.98;0.75;;;;;;;13.78;41.88;96123.31;5134416;27;20497;-31
2022/04/03 05:35:40;;;;;;;1.00;0.63;;;;;;;13.83;41.54;96128.16;5134474;27;20027;-31
2022/04/03 05:38:06;;;;;;;0.90;0.70;;;;;;;13.77;41.90;96124.50;5116409;27;20019;-31
2022/04/03 05:40:31;;;;;;;1.30;0.90;;;;;;;13.79;41.95;96131.03;5134582;27;20482;-32
2022/04/03 05:42:58;;;;;;;0.93;0.80;;;;;;;13.64;41.90;96133.59;5134424;27;20176;-31
2022/04/03 05:45:24;;;;;;;1.83;0.80;;;;;;;13.70;42.08;96136.47;5134484;27;20526;-31
2022/04/03 05:47:50;;;;;;;1.63;0.82;;;;;;;13.67;42.22;96142.81;5134473;27;20467;-31
2022/04/03 05:50:15;;;;;;;2.00;0.75;;;;;;;13.75;41.82;96138.59;5134245;27;20027;-31
2022/04/03 05:52:47;;;;;;;1.13;0.80;;;;;;;13.66;42.17;96154.94;5134726;27;20072;-31
2022/04/03 05:55:14;;;;;;;1.15;0.70;;;;;;;13.73;42.03;96154.63;5116248;27;20363;-31
2022/04/03 05:57:40;;;;;;;1.23;0.80;;;;;;;13.71;41.90;96159.78;5134307;27;20015;-31
2022/04/03 06:00:07;;;;;;;1.02;0.77;;;;;;;13.76;41.99;96161.91;5134377;27;20348;-31
2022/04/03 06:02:58;;;;;;;1.50;0.90;;;;;;;13.71;42.20;96167.97;5133947;27;20055;-31
2022/04/03 06:05:25;;;;;;;2.08;1.20;;;;;;;13.78;42.31;96164.94;5134339;27;20019;-31
2022/04/03 06:07:51;;;;;;;2.65;1.63;;;;;;;13.74;41.82;96172.50;5134415;27;20030;-31
2022/04/03 06:10:19;;;;;;;2.55;1.83;;;;;;;13.64;42.28;96170.97;5134143;27;20023;-31
2022/04/03 06:13:02;;;;;;;4.30;2.13;;;;;;;13.70;42.32;96173.88;5134206;27;20027;-31
2022/04/03 06:15:36;;;;;;;4.38;2.42;;;;;;;13.86;42.00;96179.78;5134157;27;20103;-31
2022/04/03 06:18:13;;;;;;;4.63;2.58;;;;;;;13.80;42.20;96194.47;5134084;27;20059;-31
2022/04/03 06:20:39;;;;;;;5.78;3.30;;;;;;;13.76;42.61;96199.31;5134412;27;20027;-31
2022/04/03 06:23:15;;;;;;;8.18;3.40;;;;;;;13.77;42.36;96193.41;5134186;27;20058;-31
2022/04/03 06:25:45;;;;;;;8.15;3.90;;;;;;;13.73;42.43;96195.50;5134231;27;20027;-32
2022/04/03 06:28:11;;;;;;;7.05;3.75;;;;;;;13.79;42.46;96204.63;5134147;27;20495;-31
2022/04/03 06:30:37;;;;;;;9.23;3.65;;;;;;;13.78;42.73;96208.56;5134075;27;20023;-31
2022/04/03 06:33:02;;;;;;;7.30;4.07;;;;;;;13.62;42.97;96217.00;5134043;27;20099;-31
2022/04/03 06:35:28;;;;;;;8.77;4.50;;;;;;;13.84;42.75;96223.09;5133778;27;20023;-31
2022/04/03 06:37:54;;;;;;;7.57;3.75;;;;;;;13.85;42.73;96221.13;5133737;27;20019;-31
2022/04/03 06:40:19;;;;;;;8.88;4.22;;;;;;;13.75;42.82;96233.97;5133836;27;20077;-31
2022/04/03 06:42:45;;;;;;;9.40;4.38;;;;;;;13.69;43.17;96238.53;5133953;27;20089;-31
2022/04/03 06:45:11;;;;;;;7.68;4.22;;;;;;;13.78;42.62;96241.25;5133819;27;20027;-31
2022/04/03 06:47:37;;;;;;;7.93;4.57;;;;;;;13.74;43.16;96248.03;5133803;27;20464;-31
2022/04/03 06:50:04;;;;;;;12.90;5.15;;;;;;;13.74;43.05;96245.31;5133728;27;20096;-31
2022/04/03 06:52:30;;;;;;;6.97;4.00;;;;;;;13.66;43.27;96251.06;5133861;27;20045;-31
2022/04/03 06:54:55;;;;;;;8.95;4.32;;;;;;;13.67;43.37;96254.56;5133736;27;20463;-31
2022/04/03 06:57:21;;;;;;;7.28;4.35;;;;;;;13.65;43.32;96260.44;5133701;27;20035;-31
2022/04/03 06:59:46;;;;;;;8.75;3.80;;;;;;;13.64;43.54;96258.94;5133877;27;20359;-31
2022/04/03 07:02:12;;;;;;;7.57;3.50;;;;;;;13.66;43.48;96263.94;5136213;27;20047;-31
2022/04/03 07:04:37;;;;;;;7.20;3.38;;;;;;;13.69;43.50;96265.78;5137763;27;20030;-32
2022/04/03 07:07:04;;;;;;;5.70;3.38;;;;;;;13.71;43.50;96268.03;5137285;27;20019;-31
2022/04/03 07:09:30;;;;;;;7.40;3.60;;;;;;;13.75;43.09;96265.91;5137390;27;20079;-31
2022/04/03 07:11:56;;;;;;;6.47;3.00;;;;;;;13.77;43.33;96272.44;5137267;27;20020;-31
2022/04/03 07:14:22;;;;;;;5.53;2.85;;;;;;;13.69;43.46;96271.22;5137297;27;20083;-31
2022/04/03 07:16:48;;;;;;;7.00;3.00;;;;;;;13.71;43.62;96270.78;5137018;27;20023;-31
2022/04/03 07:19:13;;;;;;;5.93;3.30;;;;;;;13.75;43.46;96277.59;5136237;27;20035;-31
2022/04/03 07:21:39;;;;;;;6.30;3.00;;;;;;;13.65;43.65;96270.59;5137196;27;20052;-31
2022/04/03 07:24:05;;;;;;;5.78;2.83;;;;;;;13.56;44.12;96284.19;5137132;27;20484;-31
2022/04/03 07:26:31;;;;;;;5.60;2.83;;;;;;;13.72;43.89;96280.47;5137103;27;20483;-32
2022/04/03 07:28:57;;;;;;;6.03;2.83;;;;;;;13.75;43.39;96285.00;5137100;27;20425;-31
2022/04/03 07:31:23;;;;;;;4.15;2.50;;;;;;;13.62;43.68;96291.31;5137059;27;20076;-32
2022/04/03 07:33:48;;;;;;;5.32;3.40;;;;;;;13.70;43.80;96294.53;5125669;27;20039;-31
2022/04/03 07:36:14;;;;;;;4.97;2.90;;;;;;;13.71;43.77;96298.03;5114450;28;20468;-31
2022/04/03 07:38:39;;;;;;;4.03;2.58;;;;;;;13.71;44.03;96295.31;5096031;28;20027;-31
2022/04/03 07:41:05;;;;;;;3.10;1.98;;;;;;;13.69;44.17;96295.75;5113983;28;20034;-31
2022/04/03 07:43:32;;;;;;;3.90;2.63;;;;;;;13.59;44.24;96305.09;5114091;28;20096;-32
2022/04/03 07:45:58;;;;;;;3.42;2.28;;;;;;;13.64;44.17;96307.22;5113972;28;20015;-31
2022/04/03 07:48:23;;;;;;;5.13;2.72;;;;;;;13.70;44.15;96305.44;5114274;28;20027;-31
2022/04/03 07:50:49;;;;;;;5.57;2.42;;;;;;;13.64;44.39;96310.72;5114021;28;20108;-31
2022/04/03 07:53:14;;;;;;;3.92;2.20;;;;;;;13.71;44.21;96317.88;5114103;28;20479;-31
2022/04/03 07:55:40;;;;;;;4.03;2.60;;;;;;;13.70;44.06;96324.53;5113945;28;20027;-31
2022/04/03 07:58:06;;;;;;;3.92;2.28;;;;;;;13.68;44.34;96323.44;5113630;28;20035;-32
2022/04/03 08:00:33;;;;;;;4.28;2.45;;;;;;;13.74;44.10;96338.75;5113631;28;20404;-31
2022/04/03 08:02:59;;;;;;;4.13;1.98;;;;;;;13.72;43.99;96330.28;5113495;28;20108;-31
2022/04/03 08:05:24;;;;;;;5.18;2.30;;;;;;;13.55;44.79;96339.91;5113687;28;20028;-31
2022/04/03 08:07:50;;;;;;;5.95;2.22;;;;;;;13.70;44.12;96351.00;5113764;28;20024;-32
2022/04/03 08:10:18;;;;;;;4.25;2.13;;;;;;;13.63;44.65;96360.19;5113449;28;20053;-31
2022/04/03 08:12:45;;;;;;;3.00;1.90;;;;;;;13.64;44.43;96365.22;5113485;28;20102;-31
2022/04/03 08:15:12;;;;;;;3.65;1.90;;;;;;;13.66;44.16;96365.53;5113513;28;20027;-31
2022/04/03 08:17:38;;;;;;;3.78;2.03;;;;;;;13.75;44.01;96372.97;5113524;28;20483;-31
2022/04/03 08:20:05;;;;;;;5.13;1.90;;;;;;;13.65;44.29;96382.31;5113589;28;20536;-31
2022/04/03 08:22:31;;;;;;;4.57;1.50;;;;;;;13.71;44.23;96383.28;5113139;28;20105;-31
2022/04/03 08:24:56;;;;;;;3.75;1.70;;;;;;;13.71;44.02;96391.44;5111787;28;20028;-31
2022/04/03 08:27:22;;;;;;;2.95;1.65;;;;;;;13.61;44.49;96396.06;5113365;28;20707;-31
2022/04/03 08:29:48;;;;;;;3.63;1.70;;;;;;;13.65;44.13;96398.69;5113162;28;20045;-31
2022/04/03 08:32:14;;;;;;;2.67;1.50;;;;;;;13.57;44.27;96411.81;5112293;28;20468;-31
2022/04/03 08:34:40;;;;;;;3.40;2.40;;;;;;;13.54;44.94;96415.44;5113003;28;20024;-31
2022/04/03 08:37:06;;;;;;;4.65;2.55;;;;;;;13.54;44.78;96420.88;5112937;28;20024;-31
2022/04/03 08:39:31;;;;;;;5.47;2.80;;;;;;;13.54;44.54;96422.84;5113175;28;20110;-31
2022/04/03 08:41:57;;;;;;;3.30;2.60;;;;;;;13.56;44.75;96425.88;5120277;27;20026;-32
2022/04/03 08:44:24;;;;;;;4.63;2.78;;;;;;;13.64;44.45;96427.13;5135587;27;20110;-31
2022/04/03 08:46:50;;;;;;;4.07;2.80;;;;;;;13.65;44.67;96434.09;5135455;27;20023;-32
2022/04/03 08:49:19;;;;;;;2.65;2.33;;;;;;;13.51;44.86;96423.72;5135485;27;20019;-31
2022/04/03 08:51:47;;;;;;;3.35;2.47;;;;;;;13.56;44.83;96429.38;5135563;27;20023;-31
2022/04/03 08:54:17;;;;;;;3.38;2.40;;;;;;;13.58;44.73;96439.81;5135321;27;20490;-31
2022/04/03 08:56:42;;;;;;;3.30;2.45;;;;;;;13.57;44.81;96435.56;5135114;27;20031;-32
2022/04/03 08:59:09;;;;;;;3.65;2.42;;;;;;;13.60;44.89;96440.13;5135419;27;20428;-31
2022/04/03 09:01:35;;;;;;;3.05;2.15;;;;;;;13.52;44.90;96441.59;5135257;27;20027;-32
2022/04/03 09:04:00;;;;;;;4.35;2.33;;;;;;;13.61;44.81;96442.41;5134909;27;20057;-31
2022/04/03 09:06:27;;;;;;;3.22;2.58;;;;;;;13.68;44.34;96448.81;5135278;27;20468;-31
2022/04/03 09:08:53;;;;;;;3.58;2.22;;;;;;;13.42;45.35;96454.41;5134975;27;20031;-31
2022/04/03 09:11:19;;;;;;;3.70;2.35;;;;;;;13.65;44.69;96450.44;5134856;27;20038;-31
2022/04/03 09:13:45;;;;;;;3.55;2.38;;;;;;;13.70;44.47;96463.50;5134829;27;20054;-31
2022/04/03 09:16:11;;;;;;;4.55;2.35;;;;;;;13.67;44.64;96456.22;5134966;27;20034;-31
2022/04/03 09:18:53;;;;;;;3.85;1.70;;;;;;;13.66;44.65;96473.78;5134834;27;20027;-31
2022/04/03 09:21:20;;;;;;;2.20;1.70;;;;;;;13.64;44.74;96470.72;5134995;27;20027;-31
2022/04/03 09:24:02;;;;;;;3.22;2.10;;;;;;;13.67;44.78;96472.56;5134209;27;20471;-31
2022/04/03 09:26:29;;;;;;;3.00;1.70;;;;;;;13.70;44.29;96477.13;5134656;27;20030;-31
2022/04/03 09:29:13;;;;;;;2.65;1.60;;;;;;;13.69;44.34;96478.34;5134674;27;20080;-31
2022/04/03 09:31:39;;;;;;;;;;;;;;;13.71;44.40;96495.00;5135170;27;20025;-31
2022/04/03 09:34:07;;;;;;;2.83;1.80;;;;;;;13.66;44.62;96495.56;5134651;27;19907;-31
2022/04/03 09:36:33;;;;;;;3.17;1.73;;;;;;;13.62;44.42;96492.22;5134590;27;20027;-32
2022/04/03 09:39:24;;;;;;;2.25;1.42;;;;;;;13.63;44.49;96486.31;5133873;27;20382;-31
2022/04/03 09:41:58;;;;;;;2.38;1.50;;;;;;;13.61;44.71;96493.41;5133921;27;20106;-31
2022/04/03 09:44:36;;;;;;;3.70;2.15;;;;;;;13.66;44.48;96492.84;5134829;27;20023;-31
2022/04/03 09:47:24;;;;;;;3.17;2.00;;;;;;;13.65;44.51;96488.59;5134221;27;20455;-31
2022/04/03 09:49:56;;;;;;;5.70;2.80;;;;;;;13.66;44.54;96495.56;5134649;27;20034;-31
2022/04/03 09:52:51;;;;;;;5.13;2.80;;;;;;;13.66;44.56;96490.13;5134263;27;20034;-31
2022/04/03 09:55:22;;;;;;;4.72;2.63;;;;;;;13.63;44.64;96497.22;5115913;27;20059;-31
2022/04/03 09:58:04;;;;;;;3.35;2.42;;;;;;;13.65;44.62;96483.91;5134152;27;20035;-31
2022/04/03 10:00:37;;;;;;;4.55;2.53;;;;;;;13.68;44.71;96484.22;5108689;28;20412;-31
2022/04/03 10:03:03;;;;;;;3.67;2.50;;;;;;;13.54;44.97;96491.72;5120652;28;20052;-31
2022/04/03 10:05:30;;;;;;;4.15;2.15;;;;;;;13.75;44.58;96503.03;5110805;28;20034;-31
2022/04/03 10:08:00;;;;;;;4.00;2.30;;;;;;;13.67;44.66;96497.09;5111471;28;20033;-31
2022/04/03 10:10:30;;;;;;;3.78;2.05;;;;;;;13.63;44.81;96499.19;5111021;28;20043;-31
2022/04/03 10:12:55;;;;;;;3.03;2.22;;;;;;;13.68;44.48;96498.63;5112942;28;20032;-31
2022/04/03 10:15:22;;;;;;;3.17;2.00;;;;;;;13.49;44.90;96496.97;5109802;28;20027;-31
2022/04/03 10:17:47;;;;;;;2.65;1.80;;;;;;;13.69;44.39;96494.69;5111645;28;20044;-31
2022/04/03 10:20:14;;;;;;;2.45;1.92;;;;;;;13.81;44.44;96493.84;5111692;28;20015;-31
2022/04/03 10:22:42;;;;;;;5.03;2.85;;;;;;;13.64;44.59;96493.28;5111707;28;20023;-31
2022/04/03 10:25:14;;;;;;;3.45;1.92;;;;;;;13.64;44.63;96492.53;5111669;28;20021;-31
2022/04/03 10:27:42;;;;;;;3.83;2.20;;;;;;;13.63;44.74;96504.63;5110163;28;20028;-31
2022/04/03 10:30:10;;;;;;;5.50;2.45;;;;;;;13.75;44.47;96497.59;5111778;28;20073;-31
2022/04/03 10:32:40;;;;;;;4.88;2.22;;;;;;;13.47;44.96;96499.41;5111626;28;20107;-32
2022/04/03 10:35:08;;;;;;;4.43;2.75;;;;;;;13.68;44.27;96492.41;5111565;28;20034;-31
2022/04/03 10:37:39;;;;;;;5.75;2.90;;;;;;;13.56;44.79;96508.38;5115082;28;20472;-31
2022/04/03 10:40:10;;;;;;;4.75;2.50;;;;;;;13.66;44.57;96501.03;5115253;28;20088;-31
2022/04/03 10:42:58;;;;;;;4.80;2.40;;;;;;;13.27;45.78;96508.59;5113409;27;20023;-31
2022/04/03 10:45:32;;;;;;;5.97;3.00;;;;;;;13.51;45.23;96510.91;5115436;28;20134;-31
2022/04/03 10:48:19;;;;;;;4.35;2.47;;;;;;;13.58;44.75;96505.97;5115701;28;20031;-31
2022/04/03 10:50:59;;;;;;;4.13;2.78;;;;;;;13.60;44.55;96514.44;5115349;28;20032;-31
2022/04/03 10:53:28;;;;;;;3.25;2.30;;;;;;;13.60;44.87;96509.00;5115325;28;20421;-31
2022/04/03 10:55:58;;;;;;;4.82;2.25;;;;;;;13.61;44.55;96501.59;5115045;27;20051;-31
2022/04/03 10:58:24;;;;;;;3.45;2.13;;;;;;;13.54;44.80;96499.88;5115266;28;20102;-31
2022/04/03 11:00:51;;;;;;;3.35;1.83;;;;;;;13.69;44.28;96516.50;5115236;28;20115;-31
2022/04/03 11:03:17;;;;;;;3.70;1.77;;;;;;;13.70;44.43;96507.13;5127469;27;20045;-33
2022/04/03 11:05:45;;;;;;;4.57;1.60;;;;;;;13.69;44.09;96511.03;5130498;27;20463;-31
2022/04/03 11:08:17;;;;;;;3.28;1.60;;;;;;;13.75;44.13;96519.41;5134627;27;20114;-31
2022/04/03 11:10:53;;;;;;;2.88;1.90;;;;;;;13.73;44.23;96519.84;5133843;27;20031;-31
2022/04/03 11:13:22;;;;;;;3.00;1.58;;;;;;;13.70;44.08;96531.66;5130802;27;20072;-31
2022/04/03 11:15:57;;;;;;;2.92;1.63;;;;;;;13.75;44.17;96536.50;5135143;27;20395;-31
2022/04/03 11:18:29;;;;;;;2.47;1.40;;;;;;;13.59;44.82;96534.00;5135296;27;20046;-32
2022/04/03 11:21:30;;;;;;;2.28;1.30;;;;;;;13.57;44.57;96537.16;5134921;27;20109;-31
2022/04/03 11:24:11;;;;;;;2.10;1.35;;;;;;;13.58;44.89;96535.19;5110469;28;20082;-31
2022/04/03 11:26:39;;;;;;;2.70;1.85;;;;;;;13.56;44.56;96538.34;5121284;27;20023;-31
2022/04/03 11:29:06;;;;;;;2.25;1.50;;;;;;;13.73;44.15;96536.19;5134890;27;20050;-31
2022/04/03 11:31:33;;;;;;;2.97;1.77;;;;;;;13.64;44.48;96536.13;5134746;27;20045;-31
2022/04/03 11:33:59;;;;;;;1.95;1.55;;;;;;;13.73;44.34;96538.16;5134072;27;20083;-31
2022/04/03 11:36:30;;;;;;;3.05;1.77;;;;;;;13.71;44.37;96546.03;5134842;27;20027;-31